createdAt,value
2017-12-31T00:01:42.266Z,12.80
2017-12-31T00:04:09.799Z,12.80
2017-12-31T00:06:37.223Z,12.80
2017-12-31T00:09:08.742Z,12.80
2017-12-31T00:11:36.677Z,12.70
2017-12-31T00:14:16.844Z,12.70
2017-12-31T00:16:44.281Z,12.80
2017-12-31T00:19:11.823Z,12.80
2017-12-31T00:21:44.446Z,12.90
2017-12-31T00:24:11.858Z,12.90
2017-12-31T00:26:39.274Z,13.00
2017-12-31T00:29:06.701Z,13.10
2017-12-31T00:31:34.927Z,13.30
2017-12-31T00:34:02.399Z,13.30
2017-12-31T00:36:29.831Z,13.30
2017-12-31T00:38:57.250Z,13.30
2017-12-31T00:41:24.714Z,13.30
2017-12-31T00:43:52.138Z,13.40
2017-12-31T00:46:19.655Z,13.40
2017-12-31T00:48:47.079Z,13.50
2017-12-31T00:51:14.507Z,13.50
2017-12-31T00:53:41.931Z,13.50
2017-12-31T00:56:09.368Z,13.50
2017-12-31T00:58:36.870Z,13.50
2017-12-31T01:01:04.295Z,13.50
2017-12-31T01:03:31.731Z,13.50
2017-12-31T01:05:59.150Z,13.60
2017-12-31T01:08:27.342Z,13.70
2017-12-31T01:10:54.763Z,13.70
2017-12-31T01:13:22.195Z,13.70
2017-12-31T01:15:49.614Z,13.80
2017-12-31T01:18:17.043Z,13.80
2017-12-31T01:20:45.231Z,13.80
2017-12-31T01:23:12.718Z,13.70
2017-12-31T01:25:40.138Z,13.80
2017-12-31T01:28:07.558Z,13.80
2017-12-31T01:30:34.991Z,13.80
2017-12-31T01:33:02.451Z,13.80
2017-12-31T01:35:29.882Z,13.80
2017-12-31T01:37:57.306Z,13.80
2017-12-31T01:40:24.735Z,13.80
2017-12-31T01:42:52.155Z,13.80
2017-12-31T01:45:19.707Z,13.80
2017-12-31T01:47:47.128Z,13.90
2017-12-31T01:50:14.559Z,13.90
2017-12-31T01:52:41.979Z,13.90
2017-12-31T01:55:09.415Z,13.90
2017-12-31T01:57:36.834Z,13.90
2017-12-31T02:00:04.259Z,13.90
2017-12-31T02:02:31.682Z,13.90
2017-12-31T02:04:59.098Z,13.90
2017-12-31T02:07:26.531Z,13.90
2017-12-31T02:09:53.955Z,14.00
2017-12-31T02:12:21.379Z,14.00
2017-12-31T02:14:48.906Z,14.00
2017-12-31T02:17:16.339Z,14.00
2017-12-31T02:19:43.769Z,14.00
2017-12-31T02:22:11.955Z,14.00
2017-12-31T02:24:39.374Z,14.00
2017-12-31T02:27:06.810Z,14.00
2017-12-31T02:29:34.231Z,14.00
2017-12-31T02:32:01.680Z,14.00
2017-12-31T02:34:29.142Z,13.90
2017-12-31T02:36:56.623Z,14.00
2017-12-31T02:39:24.051Z,13.90
2017-12-31T02:41:51.467Z,13.90
2017-12-31T02:44:18.895Z,13.90
2017-12-31T02:46:46.316Z,13.90
2017-12-31T02:49:13.743Z,13.80
2017-12-31T02:51:41.456Z,13.80
2017-12-31T02:54:08.915Z,13.80
2017-12-31T02:56:37.551Z,13.80
2017-12-31T02:59:04.986Z,13.80
2017-12-31T03:01:32.407Z,13.80
2017-12-31T03:03:59.827Z,13.80
2017-12-31T03:06:28.022Z,13.80
2017-12-31T03:08:55.446Z,13.80
2017-12-31T03:11:22.875Z,13.80
2017-12-31T03:13:50.300Z,13.80
2017-12-31T03:16:17.732Z,13.70
2017-12-31T03:18:45.910Z,13.70
2017-12-31T03:21:13.343Z,13.70
2017-12-31T03:23:40.762Z,13.70
2017-12-31T03:26:08.211Z,13.70
2017-12-31T03:28:35.616Z,13.70
2017-12-31T03:31:03.820Z,13.60
2017-12-31T03:33:31.235Z,13.60
2017-12-31T03:35:58.670Z,13.70
2017-12-31T03:38:26.198Z,13.60
2017-12-31T03:40:53.619Z,13.60
2017-12-31T03:43:21.047Z,13.60
2017-12-31T03:45:48.467Z,13.60
2017-12-31T03:48:15.939Z,13.60
2017-12-31T03:50:43.359Z,13.70
2017-12-31T03:53:10.782Z,13.60
2017-12-31T03:55:38.976Z,13.70
2017-12-31T03:58:06.395Z,13.70
2017-12-31T04:00:33.819Z,13.70
2017-12-31T04:03:01.272Z,13.70
2017-12-31T04:05:29.702Z,13.70
2017-12-31T04:07:57.123Z,13.70
2017-12-31T04:10:24.542Z,13.80
2017-12-31T04:12:51.967Z,13.80
2017-12-31T04:15:19.395Z,13.80
2017-12-31T04:17:46.866Z,13.80
2017-12-31T04:20:14.243Z,13.80
2017-12-31T04:22:41.662Z,13.80
2017-12-31T04:25:09.102Z,13.90
2017-12-31T04:27:36.523Z,13.90
2017-12-31T04:30:03.946Z,13.90
2017-12-31T04:32:31.370Z,13.90
2017-12-31T04:34:58.796Z,13.90
2017-12-31T04:37:26.219Z,13.90
2017-12-31T04:42:27.422Z,13.90
2017-12-31T04:44:54.847Z,13.90
2017-12-31T04:47:22.276Z,13.90
2017-12-31T04:49:49.699Z,13.90
2017-12-31T04:52:17.171Z,13.90
2017-12-31T04:54:44.601Z,13.90
2017-12-31T04:57:12.027Z,14.00
2017-12-31T04:59:40.206Z,13.90
2017-12-31T05:02:07.631Z,13.90
2017-12-31T05:04:35.063Z,13.90
2017-12-31T05:07:02.479Z,14.00
2017-12-31T05:09:29.911Z,13.90
2017-12-31T05:11:57.443Z,13.90
2017-12-31T05:14:24.876Z,13.90
2017-12-31T05:16:52.290Z,13.90
2017-12-31T05:19:20.483Z,13.90
2017-12-31T05:21:47.907Z,13.90
2017-12-31T05:24:15.423Z,13.90
2017-12-31T05:26:42.843Z,13.90
2017-12-31T05:29:10.275Z,13.90
2017-12-31T05:31:37.686Z,13.80
2017-12-31T05:34:05.119Z,13.90
2017-12-31T05:36:32.567Z,13.90
2017-12-31T05:39:00.075Z,13.90
2017-12-31T05:41:27.491Z,13.90
2017-12-31T05:43:54.973Z,13.90
2017-12-31T05:46:22.399Z,13.90
2017-12-31T05:48:49.874Z,13.90
2017-12-31T05:51:17.246Z,13.90
2017-12-31T05:53:44.670Z,13.90
2017-12-31T05:56:12.099Z,13.90
2017-12-31T05:58:39.514Z,13.80
2017-12-31T06:01:06.943Z,13.80
2017-12-31T06:03:34.362Z,13.90
2017-12-31T06:06:01.810Z,13.80
2017-12-31T06:08:29.235Z,13.90
2017-12-31T06:10:56.655Z,13.90
2017-12-31T06:13:24.855Z,13.90
2017-12-31T06:15:52.275Z,13.80
2017-12-31T06:18:19.707Z,13.90
2017-12-31T06:20:47.123Z,13.90
2017-12-31T06:23:14.557Z,13.90
2017-12-31T06:25:41.982Z,13.90
2017-12-31T06:28:10.175Z,13.90
2017-12-31T06:30:37.595Z,13.80
2017-12-31T06:33:05.034Z,13.90
2017-12-31T06:35:32.575Z,13.90
2017-12-31T06:38:00.011Z,13.90
2017-12-31T06:40:27.428Z,13.80
2017-12-31T06:42:54.846Z,13.90
2017-12-31T06:45:22.279Z,13.80
2017-12-31T06:47:49.699Z,13.80
2017-12-31T06:50:17.899Z,13.80
2017-12-31T06:52:45.319Z,13.80
2017-12-31T06:55:13.520Z,13.70
2017-12-31T06:57:40.939Z,13.70
2017-12-31T07:00:08.371Z,13.70
2017-12-31T07:02:35.786Z,13.70
2017-12-31T07:05:03.219Z,13.70
2017-12-31T07:07:31.400Z,13.70
2017-12-31T07:09:58.823Z,13.60
2017-12-31T07:12:26.257Z,13.70
2017-12-31T07:14:53.675Z,13.60
2017-12-31T07:17:21.106Z,13.70
2017-12-31T07:19:48.527Z,13.70
2017-12-31T07:22:15.954Z,13.70
2017-12-31T07:24:43.374Z,13.70
2017-12-31T07:27:10.799Z,13.70
2017-12-31T07:29:38.456Z,13.70
2017-12-31T07:32:05.908Z,13.70
2017-12-31T07:34:33.327Z,13.70
2017-12-31T07:37:00.763Z,13.70
2017-12-31T07:39:28.179Z,13.70
2017-12-31T07:41:55.610Z,13.70
2017-12-31T07:44:23.031Z,13.60
2017-12-31T07:46:50.455Z,13.70
2017-12-31T07:49:18.090Z,13.70
2017-12-31T07:51:45.507Z,13.70
2017-12-31T07:54:12.939Z,13.70
2017-12-31T07:56:40.354Z,13.60
2017-12-31T07:59:07.783Z,13.70
2017-12-31T08:01:35.966Z,13.70
2017-12-31T08:04:03.399Z,13.70
2017-12-31T08:06:30.822Z,13.70
2017-12-31T08:08:58.247Z,13.70
2017-12-31T08:11:25.662Z,13.70
2017-12-31T08:13:53.102Z,13.70
2017-12-31T08:16:20.518Z,13.70
2017-12-31T08:18:47.939Z,13.80
2017-12-31T08:21:15.370Z,13.70
2017-12-31T08:23:42.795Z,13.80
2017-12-31T08:26:10.223Z,13.80
2017-12-31T08:28:37.643Z,13.80
2017-12-31T08:31:05.839Z,13.80
2017-12-31T08:33:33.254Z,13.80
2017-12-31T08:36:00.688Z,13.80
2017-12-31T08:38:28.115Z,13.80
2017-12-31T08:40:55.542Z,13.80
2017-12-31T08:43:22.962Z,13.80
2017-12-31T08:45:51.161Z,13.80
2017-12-31T08:48:18.574Z,13.80
2017-12-31T08:50:46.015Z,13.80
2017-12-31T08:53:13.435Z,13.90
2017-12-31T08:55:40.859Z,13.80
2017-12-31T08:58:08.287Z,13.80
2017-12-31T09:00:35.704Z,13.90
2017-12-31T09:03:03.135Z,13.90
2017-12-31T09:05:31.919Z,13.90
2017-12-31T09:07:59.364Z,13.90
2017-12-31T09:10:27.250Z,13.90
2017-12-31T09:12:54.691Z,14.00
2017-12-31T09:15:22.111Z,14.00
2017-12-31T09:17:49.534Z,14.00
2017-12-31T09:20:16.956Z,14.00
2017-12-31T09:22:44.408Z,14.00
2017-12-31T09:25:11.971Z,14.10
2017-12-31T09:27:39.451Z,14.00
2017-12-31T09:30:06.871Z,14.00
2017-12-31T09:32:34.322Z,14.10
2017-12-31T09:35:01.748Z,14.10
2017-12-31T09:37:29.171Z,14.10
2017-12-31T09:39:56.599Z,14.10
2017-12-31T09:42:24.038Z,14.20
2017-12-31T09:44:51.467Z,14.20
2017-12-31T09:47:19.042Z,14.20
2017-12-31T09:49:46.458Z,14.20
2017-12-31T09:52:13.886Z,14.20
2017-12-31T09:54:41.331Z,14.30
2017-12-31T09:57:08.907Z,14.20
2017-12-31T09:59:36.339Z,14.20
2017-12-31T10:02:03.755Z,14.20
2017-12-31T10:04:31.192Z,14.20
2017-12-31T10:06:58.610Z,14.20
2017-12-31T10:09:26.042Z,14.30
2017-12-31T10:11:54.267Z,14.30
2017-12-31T10:14:21.703Z,14.30
2017-12-31T10:16:49.126Z,14.40
2017-12-31T10:19:16.543Z,14.40
2017-12-31T10:21:43.983Z,14.40
2017-12-31T10:24:11.407Z,14.40
2017-12-31T10:26:38.862Z,14.30
2017-12-31T10:29:06.282Z,14.30
2017-12-31T10:31:34.111Z,14.30
2017-12-31T10:34:01.666Z,14.40
2017-12-31T10:36:29.095Z,14.40
2017-12-31T10:38:56.514Z,14.40
2017-12-31T10:41:23.945Z,14.40
2017-12-31T10:43:51.563Z,14.40
2017-12-31T10:46:18.988Z,14.40
2017-12-31T10:48:46.507Z,14.30
2017-12-31T10:51:14.039Z,14.40
2017-12-31T10:53:42.223Z,14.40
2017-12-31T10:56:09.693Z,14.40
2017-12-31T10:58:37.122Z,14.40
2017-12-31T11:01:04.542Z,14.40
2017-12-31T11:03:31.978Z,14.40
2017-12-31T11:05:59.427Z,14.40
2017-12-31T11:08:26.860Z,14.50
2017-12-31T11:10:54.288Z,14.50
2017-12-31T11:13:22.781Z,14.50
2017-12-31T11:15:50.187Z,14.50
2017-12-31T11:18:17.623Z,14.50
2017-12-31T11:20:45.211Z,14.60
2017-12-31T11:23:12.647Z,14.60
2017-12-31T11:25:40.071Z,14.60
2017-12-31T11:28:07.502Z,14.50
2017-12-31T11:30:34.923Z,14.60
2017-12-31T11:33:02.367Z,14.60
2017-12-31T11:35:29.799Z,14.70
2017-12-31T11:37:57.214Z,14.70
2017-12-31T11:40:24.639Z,14.80
2017-12-31T11:42:52.060Z,14.80
2017-12-31T11:45:19.518Z,14.80
2017-12-31T11:47:46.935Z,14.80
2017-12-31T11:50:15.179Z,14.80
2017-12-31T11:52:42.599Z,14.80
2017-12-31T11:55:11.350Z,14.80
2017-12-31T11:57:39.104Z,14.80
2017-12-31T12:00:06.555Z,14.90
2017-12-31T12:02:34.786Z,14.90
2017-12-31T12:05:02.471Z,14.90
2017-12-31T12:07:29.882Z,14.90
2017-12-31T12:09:57.378Z,14.90
2017-12-31T12:12:26.063Z,14.90
2017-12-31T12:14:53.478Z,14.90
2017-12-31T12:17:21.005Z,14.90
2017-12-31T12:19:48.596Z,14.90
2017-12-31T12:22:17.072Z,15.00
2017-12-31T12:24:44.519Z,15.00
2017-12-31T12:27:11.951Z,15.10
2017-12-31T12:29:39.378Z,15.10
2017-12-31T12:32:06.810Z,15.20
2017-12-31T12:34:34.222Z,15.20
2017-12-31T12:37:01.752Z,15.30
2017-12-31T12:39:29.155Z,15.30
2017-12-31T12:41:56.850Z,15.40
2017-12-31T12:44:24.396Z,15.50
2017-12-31T12:46:52.419Z,15.50
2017-12-31T12:49:19.831Z,15.50
2017-12-31T12:51:47.406Z,15.50
2017-12-31T12:54:14.843Z,15.60
2017-12-31T12:56:42.267Z,15.60
2017-12-31T12:59:12.269Z,15.70
2017-12-31T13:01:39.690Z,15.70
2017-12-31T13:04:07.103Z,15.70
2017-12-31T13:06:35.290Z,15.80
2017-12-31T13:09:02.719Z,15.80
2017-12-31T13:11:30.143Z,15.80
2017-12-31T13:13:57.566Z,15.70
2017-12-31T13:16:24.984Z,15.70
2017-12-31T13:18:52.479Z,15.70
2017-12-31T13:21:20.059Z,15.70
2017-12-31T13:23:47.486Z,15.60
2017-12-31T13:26:14.903Z,15.60
2017-12-31T13:28:43.103Z,15.60
2017-12-31T13:31:12.759Z,15.60
2017-12-31T13:33:40.190Z,15.60
2017-12-31T13:36:07.613Z,15.60
2017-12-31T13:38:40.357Z,15.70
2017-12-31T13:41:12.443Z,15.60
2017-12-31T13:43:41.062Z,15.70
2017-12-31T13:46:10.136Z,15.80
2017-12-31T13:48:37.627Z,16.00
2017-12-31T13:51:05.055Z,16.30
2017-12-31T13:53:33.243Z,16.40
2017-12-31T13:56:00.664Z,16.40
2017-12-31T13:58:31.196Z,16.40
2017-12-31T14:01:00.131Z,16.40
2017-12-31T14:03:30.971Z,16.30
2017-12-31T14:05:58.443Z,16.30
2017-12-31T14:08:25.855Z,16.30
2017-12-31T14:10:54.051Z,16.00
2017-12-31T14:13:21.467Z,16.00
2017-12-31T14:15:48.896Z,15.90
2017-12-31T14:18:16.321Z,15.80
2017-12-31T14:20:43.770Z,15.80
2017-12-31T14:23:11.255Z,15.70
2017-12-31T14:25:38.675Z,15.60
2017-12-31T14:28:06.102Z,15.60
2017-12-31T14:30:33.578Z,15.60
2017-12-31T14:33:01.807Z,15.60
2017-12-31T14:35:29.239Z,15.60
2017-12-31T14:37:56.670Z,15.60
2017-12-31T14:40:24.087Z,15.60
2017-12-31T14:42:51.550Z,15.60
2017-12-31T14:45:19.769Z,15.50
2017-12-31T14:47:47.282Z,15.60
2017-12-31T14:50:14.699Z,15.40
2017-12-31T14:52:42.351Z,15.40
2017-12-31T14:55:09.775Z,15.30
2017-12-31T14:57:37.203Z,15.20
2017-12-31T15:00:04.627Z,15.20
2017-12-31T15:02:32.055Z,15.10
2017-12-31T15:05:00.234Z,15.00
2017-12-31T15:07:27.652Z,15.00
2017-12-31T15:09:55.847Z,14.80
2017-12-31T15:12:23.262Z,14.80
2017-12-31T15:14:50.996Z,14.80
2017-12-31T15:17:18.414Z,14.70
2017-12-31T15:19:45.854Z,14.60
2017-12-31T15:22:13.275Z,14.50
2017-12-31T15:24:40.702Z,14.40
2017-12-31T15:27:08.886Z,14.30
2017-12-31T15:29:36.310Z,14.30
2017-12-31T15:32:03.726Z,14.20
2017-12-31T15:34:31.155Z,14.10
2017-12-31T15:36:58.579Z,14.10
2017-12-31T15:39:26.781Z,14.00
2017-12-31T15:41:54.191Z,14.00
2017-12-31T15:44:21.626Z,14.00
2017-12-31T15:46:49.043Z,14.00
2017-12-31T15:49:16.474Z,13.90
2017-12-31T15:51:45.027Z,13.90
2017-12-31T15:54:12.467Z,13.90
2017-12-31T15:56:39.890Z,13.80
2017-12-31T15:59:07.315Z,13.80
2017-12-31T16:01:34.750Z,13.80
2017-12-31T16:04:02.176Z,13.80
2017-12-31T16:06:29.606Z,13.80
2017-12-31T16:08:57.119Z,13.70
2017-12-31T16:11:24.555Z,13.70
2017-12-31T16:13:51.979Z,13.70
2017-12-31T16:16:19.403Z,13.60
2017-12-31T16:18:47.601Z,13.60
2017-12-31T16:21:15.027Z,13.50
2017-12-31T16:23:42.628Z,13.50
2017-12-31T16:26:10.056Z,13.50
2017-12-31T16:28:37.482Z,13.40
2017-12-31T16:31:04.911Z,13.40
2017-12-31T16:33:32.331Z,13.30
2017-12-31T16:35:59.784Z,13.30
2017-12-31T16:38:27.198Z,13.30
2017-12-31T16:40:54.619Z,13.20
2017-12-31T16:43:22.135Z,13.20
2017-12-31T16:45:49.555Z,13.10
2017-12-31T16:48:16.986Z,13.10
2017-12-31T16:50:44.423Z,13.10
2017-12-31T16:53:12.624Z,13.00
2017-12-31T16:55:40.092Z,13.00
2017-12-31T16:58:07.495Z,13.00
2017-12-31T17:00:34.942Z,13.00
2017-12-31T17:03:02.371Z,12.90
2017-12-31T17:05:29.795Z,12.90
2017-12-31T17:07:57.239Z,12.90
2017-12-31T17:10:24.666Z,12.80
2017-12-31T17:12:52.088Z,12.80
2017-12-31T17:15:19.524Z,12.80
2017-12-31T17:17:46.943Z,12.70
2017-12-31T17:20:14.374Z,12.70
2017-12-31T17:22:41.799Z,12.70
2017-12-31T17:25:09.227Z,12.60
2017-12-31T17:27:36.651Z,12.60
2017-12-31T17:30:04.074Z,12.60
2017-12-31T17:32:31.556Z,12.50
2017-12-31T17:34:58.989Z,12.50
2017-12-31T17:37:26.402Z,12.50
2017-12-31T17:39:53.871Z,12.40
2017-12-31T17:42:21.295Z,12.40
2017-12-31T17:44:49.493Z,12.40
2017-12-31T17:47:16.911Z,12.40
2017-12-31T17:49:44.344Z,12.30
2017-12-31T17:52:11.766Z,12.30
2017-12-31T17:54:39.186Z,12.30
2017-12-31T17:57:07.391Z,12.20
2017-12-31T17:59:34.806Z,12.20
2017-12-31T18:02:02.235Z,12.20
2017-12-31T18:04:29.656Z,12.20
2017-12-31T18:06:57.087Z,12.20
2017-12-31T18:09:25.281Z,12.10
2017-12-31T18:11:52.703Z,12.10
2017-12-31T18:14:20.224Z,12.10
2017-12-31T18:16:47.654Z,12.10
2017-12-31T18:19:15.071Z,12.00
2017-12-31T18:21:42.503Z,12.00
2017-12-31T18:24:09.927Z,12.00
2017-12-31T18:26:37.350Z,11.90
2017-12-31T18:29:05.540Z,11.90
2017-12-31T18:31:32.980Z,11.90
2017-12-31T18:34:00.396Z,11.90
2017-12-31T18:36:27.810Z,11.80
2017-12-31T18:38:56.002Z,11.80
2017-12-31T18:41:23.415Z,11.80
2017-12-31T18:43:50.843Z,11.70
2017-12-31T18:46:18.262Z,11.70
2017-12-31T18:48:45.695Z,11.70
2017-12-31T18:51:13.883Z,11.60
2017-12-31T18:53:41.318Z,11.60
2017-12-31T18:56:08.740Z,11.60
2017-12-31T18:58:36.168Z,11.50
2017-12-31T19:01:03.586Z,11.50
2017-12-31T19:03:31.786Z,11.40
2017-12-31T19:05:59.207Z,11.40
2017-12-31T19:08:26.634Z,11.30
2017-12-31T19:10:54.059Z,11.30
2017-12-31T19:13:21.499Z,11.30
2017-12-31T19:15:49.671Z,11.20
2017-12-31T19:18:17.091Z,11.20
2017-12-31T19:20:44.518Z,11.20
2017-12-31T19:23:11.939Z,11.20
2017-12-31T19:25:39.367Z,11.20
2017-12-31T19:28:06.787Z,11.20
2017-12-31T19:30:34.218Z,11.20
2017-12-31T19:33:01.636Z,11.20
2017-12-31T19:35:29.063Z,11.20
2017-12-31T19:37:56.486Z,11.20
2017-12-31T19:40:23.923Z,11.10
2017-12-31T19:42:51.346Z,11.10
2017-12-31T19:45:19.542Z,11.00
2017-12-31T19:47:47.735Z,11.00
2017-12-31T19:50:15.196Z,11.00
2017-12-31T19:52:42.606Z,11.00
2017-12-31T19:55:10.036Z,10.90
2017-12-31T19:57:37.459Z,10.90
2017-12-31T20:00:04.894Z,10.90
2017-12-31T20:02:32.326Z,10.90
2017-12-31T20:04:59.734Z,10.90
2017-12-31T20:07:27.159Z,10.90
2017-12-31T20:09:54.578Z,10.90
2017-12-31T20:12:22.027Z,10.80
2017-12-31T20:14:49.451Z,10.80
2017-12-31T20:17:16.882Z,10.80
2017-12-31T20:19:45.070Z,10.70
2017-12-31T20:22:12.498Z,10.70
2017-12-31T20:24:39.937Z,10.70
2017-12-31T20:27:07.367Z,10.70
2017-12-31T20:29:34.788Z,10.60
2017-12-31T20:32:02.978Z,10.60
2017-12-31T20:34:30.399Z,10.60
2017-12-31T20:36:57.822Z,10.60
2017-12-31T20:39:25.238Z,10.60
2017-12-31T20:41:52.658Z,10.60
2017-12-31T20:44:20.086Z,10.60
2017-12-31T20:46:47.502Z,10.60
2017-12-31T20:49:14.931Z,10.60
2017-12-31T20:51:42.634Z,10.50
2017-12-31T20:54:10.067Z,10.50
2017-12-31T20:56:37.483Z,10.50
2017-12-31T20:59:04.919Z,10.50
2017-12-31T21:01:32.339Z,10.40
2017-12-31T21:03:59.767Z,10.40
2017-12-31T21:06:27.277Z,10.40
2017-12-31T21:08:54.708Z,10.40
2017-12-31T21:11:22.127Z,10.40
2017-12-31T21:13:49.554Z,10.40
2017-12-31T21:16:16.979Z,10.40
2017-12-31T21:18:44.413Z,10.40
2017-12-31T21:21:11.834Z,10.40
2017-12-31T21:23:39.263Z,10.40
2017-12-31T21:26:06.679Z,10.40
2017-12-31T21:28:34.114Z,10.50
2017-12-31T21:31:01.556Z,10.50
2017-12-31T21:33:28.970Z,10.60
2017-12-31T21:35:56.403Z,10.60
2017-12-31T21:38:24.591Z,10.70
2017-12-31T21:40:52.023Z,10.70
2017-12-31T21:43:19.434Z,10.70
2017-12-31T21:45:46.884Z,10.80
2017-12-31T21:48:14.755Z,10.80
2017-12-31T21:50:42.187Z,10.90
2017-12-31T21:53:09.606Z,11.00
2017-12-31T21:55:37.043Z,11.10
2017-12-31T21:58:04.479Z,11.20
2017-12-31T22:00:31.911Z,11.40
2017-12-31T22:02:59.322Z,11.60
2017-12-31T22:05:26.755Z,11.80
2017-12-31T22:07:54.174Z,12.20
2017-12-31T22:10:21.598Z,12.60
2017-12-31T22:12:49.178Z,12.80
2017-12-31T22:15:17.380Z,13.00
2017-12-31T22:17:44.799Z,13.00
2017-12-31T22:20:12.235Z,13.10
2017-12-31T22:22:39.655Z,13.20
2017-12-31T22:25:07.075Z,13.30
2017-12-31T22:27:34.551Z,13.30
2017-12-31T22:30:01.966Z,13.30
2017-12-31T22:32:30.167Z,13.20
2017-12-31T22:34:57.590Z,13.20
2017-12-31T22:37:25.027Z,13.10
2017-12-31T22:39:52.443Z,13.00
2017-12-31T22:42:19.871Z,12.90
2017-12-31T22:44:48.054Z,12.80
2017-12-31T22:47:15.546Z,12.80
2017-12-31T22:49:43.005Z,12.70
2017-12-31T22:52:10.399Z,12.70
2017-12-31T22:54:38.586Z,12.60
2017-12-31T22:57:06.019Z,12.60
2017-12-31T22:59:33.435Z,12.60
2017-12-31T23:02:00.875Z,12.50
2017-12-31T23:04:28.308Z,12.40
2017-12-31T23:06:55.734Z,12.40
2017-12-31T23:09:23.171Z,12.30
2017-12-31T23:11:50.599Z,12.20
2017-12-31T23:14:18.038Z,12.20
2017-12-31T23:16:46.221Z,12.10
2017-12-31T23:19:13.659Z,12.10
2017-12-31T23:21:41.087Z,12.10
2017-12-31T23:24:08.619Z,12.00
2017-12-31T23:26:36.044Z,12.00
2017-12-31T23:29:03.480Z,11.90
2017-12-31T23:31:30.903Z,11.90
2017-12-31T23:33:58.334Z,11.90
2017-12-31T23:36:25.772Z,11.90
2017-12-31T23:38:53.212Z,11.80
2017-12-31T23:41:21.390Z,11.80
2017-12-31T23:43:48.807Z,11.80
2017-12-31T23:46:16.240Z,11.80
2017-12-31T23:48:43.663Z,11.70
2017-12-31T23:51:11.163Z,11.70
2017-12-31T23:53:38.583Z,11.70
2017-12-31T23:56:06.915Z,11.60
2017-12-31T23:58:34.341Z,11.60
